sensor_id;sensor_type;location;lat;lon;timestamp;pressure;altitude;pressure_sealevel;temperature;humidity
51067;BME280;37112;45.892;-123.962;2023-07-20T00:00:52;101809.46;;;20.51;65.88
51067;BME280;37112;45.892;-123.962;2023-07-20T00:03:16;101807.19;;;20.48;65.69
51067;BME280;37112;45.892;-123.962;2023-07-20T00:05:33;101810.65;;;20.48;66.30
51067;BME280;37112;45.892;-123.962;2023-07-20T00:07:47;101817.87;;;20.56;66.44
51067;BME280;37112;45.892;-123.962;2023-07-20T00:10:03;101825.48;;;20.57;65.64
51067;BME280;37112;45.892;-123.962;2023-07-20T00:12:17;101826.58;;;20.46;65.51
51067;BME280;37112;45.892;-123.962;2023-07-20T00:14:32;101824.02;;;20.40;65.85
51067;BME280;37112;45.892;-123.962;2023-07-20T00:16:45;101827.17;;;20.33;66.08
51067;BME280;37112;45.892;-123.962;2023-07-20T00:19:01;101830.68;;;20.28;66.04
51067;BME280;37112;45.892;-123.962;2023-07-20T00:21:15;101828.66;;;20.18;66.29
51067;BME280;37112;45.892;-123.962;2023-07-20T00:23:28;101829.87;;;20.09;66.62
51067;BME280;37112;45.892;-123.962;2023-07-20T00:25:45;101827.23;;;19.94;66.49
51067;BME280;37112;45.892;-123.962;2023-07-20T00:28:00;101831.62;;;19.90;67.50
51067;BME280;37112;45.892;-123.962;2023-07-20T00:30:15;101835.67;;;19.93;67.60
51067;BME280;37112;45.892;-123.962;2023-07-20T00:32:29;101830.52;;;19.88;67.41
51067;BME280;37112;45.892;-123.962;2023-07-20T00:34:42;101831.21;;;19.84;67.35
51067;BME280;37112;45.892;-123.962;2023-07-20T00:36:55;101825.17;;;19.87;67.88
51067;BME280;37112;45.892;-123.962;2023-07-20T00:39:09;101833.52;;;19.89;67.77
51067;BME280;37112;45.892;-123.962;2023-07-20T00:41:22;101828.83;;;19.87;67.77
51067;BME280;37112;45.892;-123.962;2023-07-20T00:43:40;101831.79;;;19.78;67.92
51067;BME280;37112;45.892;-123.962;2023-07-20T00:45:54;101831.54;;;19.76;68.35
51067;BME280;37112;45.892;-123.962;2023-07-20T00:48:09;101829.77;;;19.72;68.55
51067;BME280;37112;45.892;-123.962;2023-07-20T00:50:25;101825.69;;;19.63;68.43
51067;BME280;37112;45.892;-123.962;2023-07-20T00:52:40;101824.95;;;19.47;68.48
51067;BME280;37112;45.892;-123.962;2023-07-20T00:54:54;101823.53;;;19.28;68.63
51067;BME280;37112;45.892;-123.962;2023-07-20T00:57:09;101821.02;;;19.07;68.65
51067;BME280;37112;45.892;-123.962;2023-07-20T00:59:24;101819.91;;;18.95;69.54
51067;BME280;37112;45.892;-123.962;2023-07-20T01:01:37;101822.54;;;18.91;69.92
51067;BME280;37112;45.892;-123.962;2023-07-20T01:03:51;101820.52;;;18.90;70.50
51067;BME280;37112;45.892;-123.962;2023-07-20T01:06:13;101820.47;;;18.82;70.63
51067;BME280;37112;45.892;-123.962;2023-07-20T01:08:32;101812.63;;;18.79;70.91
51067;BME280;37112;45.892;-123.962;2023-07-20T01:10:50;101809.93;;;18.73;71.06
51067;BME280;37112;45.892;-123.962;2023-07-20T01:13:09;101821.08;;;18.66;71.42
51067;BME280;37112;45.892;-123.962;2023-07-20T01:15:23;101819.59;;;18.69;71.83
51067;BME280;37112;45.892;-123.962;2023-07-20T01:17:37;101815.31;;;18.66;71.63
51067;BME280;37112;45.892;-123.962;2023-07-20T01:19:50;101810.42;;;18.64;72.05
51067;BME280;37112;45.892;-123.962;2023-07-20T01:22:08;101812.82;;;18.59;71.86
51067;BME280;37112;45.892;-123.962;2023-07-20T01:24:48;101816.63;;;18.59;72.03
51067;BME280;37112;45.892;-123.962;2023-07-20T01:30:02;101816.40;;;18.38;72.08
51067;BME280;37112;45.892;-123.962;2023-07-20T01:32:18;101815.11;;;18.36;72.56
51067;BME280;37112;45.892;-123.962;2023-07-20T01:34:34;101817.23;;;18.37;72.97
51067;BME280;37112;45.892;-123.962;2023-07-20T01:36:50;101815.67;;;18.33;72.98
51067;BME280;37112;45.892;-123.962;2023-07-20T01:39:06;101821.95;;;18.30;73.01
51067;BME280;37112;45.892;-123.962;2023-07-20T01:41:22;101817.29;;;18.19;72.93
51067;BME280;37112;45.892;-123.962;2023-07-20T01:43:36;101814.62;;;18.14;73.29
51067;BME280;37112;45.892;-123.962;2023-07-20T01:45:50;101816.60;;;18.09;73.29
51067;BME280;37112;45.892;-123.962;2023-07-20T01:48:04;101823.54;;;18.06;73.54
51067;BME280;37112;45.892;-123.962;2023-07-20T01:50:18;101828.65;;;17.96;73.59
51067;BME280;37112;45.892;-123.962;2023-07-20T01:52:33;101832.76;;;17.83;73.59
51067;BME280;37112;45.892;-123.962;2023-07-20T01:54:46;101832.27;;;17.78;73.87
51067;BME280;37112;45.892;-123.962;2023-07-20T01:57:00;101833.86;;;17.78;74.44
51067;BME280;37112;45.892;-123.962;2023-07-20T01:59:13;101836.09;;;17.75;74.50
51067;BME280;37112;45.892;-123.962;2023-07-20T02:01:27;101836.37;;;17.69;74.59
51067;BME280;37112;45.892;-123.962;2023-07-20T02:03:41;101838.11;;;17.65;75.01
51067;BME280;37112;45.892;-123.962;2023-07-20T02:05:54;101844.11;;;17.53;75.01
51067;BME280;37112;45.892;-123.962;2023-07-20T02:08:08;101843.66;;;17.43;75.35
51067;BME280;37112;45.892;-123.962;2023-07-20T02:10:22;101847.59;;;17.36;75.97
51067;BME280;37112;45.892;-123.962;2023-07-20T02:12:35;101845.24;;;17.27;76.11
51067;BME280;37112;45.892;-123.962;2023-07-20T02:14:49;101846.23;;;17.24;76.31
51067;BME280;37112;45.892;-123.962;2023-07-20T02:17:04;101845.99;;;17.25;76.64
51067;BME280;37112;45.892;-123.962;2023-07-20T02:19:19;101849.16;;;17.21;76.68
51067;BME280;37112;45.892;-123.962;2023-07-20T02:21:33;101851.58;;;17.15;76.53
51067;BME280;37112;45.892;-123.962;2023-07-20T02:23:46;101850.21;;;17.12;76.76
51067;BME280;37112;45.892;-123.962;2023-07-20T02:25:59;101854.38;;;17.09;77.14
51067;BME280;37112;45.892;-123.962;2023-07-20T02:28:12;101854.73;;;17.07;77.34
51067;BME280;37112;45.892;-123.962;2023-07-20T02:30:26;101854.09;;;17.03;77.97
51067;BME280;37112;45.892;-123.962;2023-07-20T02:32:40;101853.10;;;16.97;77.73
51067;BME280;37112;45.892;-123.962;2023-07-20T02:34:56;101849.75;;;16.97;77.99
51067;BME280;37112;45.892;-123.962;2023-07-20T02:37:09;101849.80;;;16.94;78.09
51067;BME280;37112;45.892;-123.962;2023-07-20T02:39:24;101850.34;;;16.96;78.39
51067;BME280;37112;45.892;-123.962;2023-07-20T02:41:37;101852.29;;;16.94;78.33
51067;BME280;37112;45.892;-123.962;2023-07-20T02:43:50;101850.15;;;16.92;78.36
51067;BME280;37112;45.892;-123.962;2023-07-20T02:46:03;101851.68;;;16.90;78.90
51067;BME280;37112;45.892;-123.962;2023-07-20T02:48:17;101847.71;;;16.88;78.79
51067;BME280;37112;45.892;-123.962;2023-07-20T02:50:30;101849.89;;;16.88;78.87
51067;BME280;37112;45.892;-123.962;2023-07-20T02:52:44;101853.48;;;16.86;79.06
51067;BME280;37112;45.892;-123.962;2023-07-20T02:54:57;101851.91;;;16.78;78.88
51067;BME280;37112;45.892;-123.962;2023-07-20T02:57:10;101855.70;;;16.73;78.78
51067;BME280;37112;45.892;-123.962;2023-07-20T02:59:24;101851.35;;;16.74;79.21
51067;BME280;37112;45.892;-123.962;2023-07-20T03:01:38;101853.98;;;16.72;79.47
51067;BME280;37112;45.892;-123.962;2023-07-20T03:03:53;101856.84;;;16.67;79.59
51067;BME280;37112;45.892;-123.962;2023-07-20T03:06:08;101858.39;;;16.65;79.51
51067;BME280;37112;45.892;-123.962;2023-07-20T03:08:23;101859.31;;;16.68;79.70
51067;BME280;37112;45.892;-123.962;2023-07-20T03:10:41;101863.59;;;16.70;79.86
51067;BME280;37112;45.892;-123.962;2023-07-20T03:12:55;101864.95;;;16.69;79.94
51067;BME280;37112;45.892;-123.962;2023-07-20T03:15:10;101866.00;;;16.64;79.97
51067;BME280;37112;45.892;-123.962;2023-07-20T03:17:24;101866.83;;;16.63;80.05
51067;BME280;37112;45.892;-123.962;2023-07-20T03:19:38;101861.89;;;16.62;80.29
51067;BME280;37112;45.892;-123.962;2023-07-20T03:21:51;101860.52;;;16.61;80.17
51067;BME280;37112;45.892;-123.962;2023-07-20T03:24:05;101854.30;;;16.60;80.17
51067;BME280;37112;45.892;-123.962;2023-07-20T03:26:19;101853.17;;;16.59;80.32
51067;BME280;37112;45.892;-123.962;2023-07-20T03:28:34;101850.29;;;16.56;80.15
51067;BME280;37112;45.892;-123.962;2023-07-20T03:30:47;101850.08;;;16.57;80.26
51067;BME280;37112;45.892;-123.962;2023-07-20T03:33:06;101850.10;;;16.59;80.38
51067;BME280;37112;45.892;-123.962;2023-07-20T03:35:19;101853.04;;;16.58;80.25
51067;BME280;37112;45.892;-123.962;2023-07-20T03:37:32;101855.52;;;16.56;80.14
51067;BME280;37112;45.892;-123.962;2023-07-20T03:39:47;101855.61;;;16.55;80.19
51067;BME280;37112;45.892;-123.962;2023-07-20T03:42:02;101857.33;;;16.54;80.27
51067;BME280;37112;45.892;-123.962;2023-07-20T03:44:17;101855.05;;;16.53;80.53
51067;BME280;37112;45.892;-123.962;2023-07-20T03:46:31;101855.95;;;16.55;80.49
51067;BME280;37112;45.892;-123.962;2023-07-20T03:48:44;101856.98;;;16.53;80.46
51067;BME280;37112;45.892;-123.962;2023-07-20T03:51:02;101858.39;;;16.53;80.55
51067;BME280;37112;45.892;-123.962;2023-07-20T03:53:17;101865.83;;;16.53;80.60
51067;BME280;37112;45.892;-123.962;2023-07-20T03:55:36;101864.73;;;16.50;80.55
51067;BME280;37112;45.892;-123.962;2023-07-20T03:57:52;101868.65;;;16.48;80.63
51067;BME280;37112;45.892;-123.962;2023-07-20T04:00:11;101870.45;;;16.46;80.69
51067;BME280;37112;45.892;-123.962;2023-07-20T04:02:25;101872.60;;;16.43;80.86
51067;BME280;37112;45.892;-123.962;2023-07-20T04:04:40;101874.09;;;16.42;81.07
51067;BME280;37112;45.892;-123.962;2023-07-20T04:06:53;101871.09;;;16.44;81.16
51067;BME280;37112;45.892;-123.962;2023-07-20T04:09:07;101873.19;;;16.42;81.04
51067;BME280;37112;45.892;-123.962;2023-07-20T04:11:22;101876.25;;;16.45;81.34
51067;BME280;37112;45.892;-123.962;2023-07-20T04:13:36;101879.33;;;16.47;81.38
51067;BME280;37112;45.892;-123.962;2023-07-20T04:15:49;101881.19;;;16.46;81.18
51067;BME280;37112;45.892;-123.962;2023-07-20T04:18:03;101885.20;;;16.42;81.01
51067;BME280;37112;45.892;-123.962;2023-07-20T04:20:16;101890.42;;;16.39;81.16
51067;BME280;37112;45.892;-123.962;2023-07-20T04:22:30;101893.46;;;16.37;81.04
51067;BME280;37112;45.892;-123.962;2023-07-20T04:24:45;101896.41;;;16.36;81.18
51067;BME280;37112;45.892;-123.962;2023-07-20T04:26:59;101896.98;;;16.38;81.56
51067;BME280;37112;45.892;-123.962;2023-07-20T04:29:13;101895.95;;;16.43;81.70
51067;BME280;37112;45.892;-123.962;2023-07-20T04:31:28;101898.39;;;16.38;81.35
51067;BME280;37112;45.892;-123.962;2023-07-20T04:33:43;101904.41;;;16.32;81.10
51067;BME280;37112;45.892;-123.962;2023-07-20T04:35:58;101902.96;;;16.27;81.11
51067;BME280;37112;45.892;-123.962;2023-07-20T04:38:16;101902.33;;;16.26;81.40
51067;BME280;37112;45.892;-123.962;2023-07-20T04:40:36;101903.74;;;16.27;81.64
51067;BME280;37112;45.892;-123.962;2023-07-20T04:42:49;101903.94;;;16.24;81.66
51067;BME280;37112;45.892;-123.962;2023-07-20T04:45:04;101904.35;;;16.23;81.88
51067;BME280;37112;45.892;-123.962;2023-07-20T04:47:19;101907.95;;;16.15;81.37
51067;BME280;37112;45.892;-123.962;2023-07-20T04:49:33;101913.02;;;16.12;81.68
51067;BME280;37112;45.892;-123.962;2023-07-20T04:51:47;101912.95;;;16.11;81.87
51067;BME280;37112;45.892;-123.962;2023-07-20T04:54:01;101912.34;;;16.12;82.28
51067;BME280;37112;45.892;-123.962;2023-07-20T04:56:18;101911.57;;;16.13;82.33
51067;BME280;37112;45.892;-123.962;2023-07-20T04:58:37;101913.77;;;16.14;82.63
51067;BME280;37112;45.892;-123.962;2023-07-20T05:00:50;101913.24;;;16.17;82.63
51067;BME280;37112;45.892;-123.962;2023-07-20T05:03:05;101913.95;;;16.20;82.93
51067;BME280;37112;45.892;-123.962;2023-07-20T05:05:19;101914.18;;;16.24;83.21
51067;BME280;37112;45.892;-123.962;2023-07-20T05:07:32;101913.08;;;16.29;83.23
51067;BME280;37112;45.892;-123.962;2023-07-20T05:09:45;101915.27;;;16.33;83.22
51067;BME280;37112;45.892;-123.962;2023-07-20T05:11:59;101915.95;;;16.34;82.94
51067;BME280;37112;45.892;-123.962;2023-07-20T05:14:12;101917.16;;;16.30;82.42
51067;BME280;37112;45.892;-123.962;2023-07-20T05:16:27;101920.94;;;16.22;81.93
51067;BME280;37112;45.892;-123.962;2023-07-20T05:18:45;101920.48;;;16.16;82.01
51067;BME280;37112;45.892;-123.962;2023-07-20T05:20:58;101921.05;;;16.15;82.29
51067;BME280;37112;45.892;-123.962;2023-07-20T05:23:11;101920.70;;;16.15;82.26
51067;BME280;37112;45.892;-123.962;2023-07-20T05:25:25;101921.12;;;16.12;82.15
51067;BME280;37112;45.892;-123.962;2023-07-20T05:27:41;101921.88;;;16.11;82.31
51067;BME280;37112;45.892;-123.962;2023-07-20T05:29:58;101923.88;;;16.11;82.25
51067;BME280;37112;45.892;-123.962;2023-07-20T05:32:12;101924.19;;;16.12;82.47
51067;BME280;37112;45.892;-123.962;2023-07-20T05:34:26;101924.42;;;16.13;82.58
51067;BME280;37112;45.892;-123.962;2023-07-20T05:36:39;101928.34;;;16.16;82.77
51067;BME280;37112;45.892;-123.962;2023-07-20T05:39:09;101931.86;;;16.20;82.91
51067;BME280;37112;45.892;-123.962;2023-07-20T05:41:22;101935.27;;;16.22;83.02
51067;BME280;37112;45.892;-123.962;2023-07-20T05:43:39;101935.58;;;16.23;82.74
51067;BME280;37112;45.892;-123.962;2023-07-20T05:45:53;101936.67;;;16.22;82.77
51067;BME280;37112;45.892;-123.962;2023-07-20T05:48:07;101934.83;;;16.23;82.56
51067;BME280;37112;45.892;-123.962;2023-07-20T05:50:22;101932.21;;;16.14;81.95
51067;BME280;37112;45.892;-123.962;2023-07-20T05:52:36;101926.39;;;16.11;82.08
51067;BME280;37112;45.892;-123.962;2023-07-20T05:54:50;101925.67;;;16.11;82.25
51067;BME280;37112;45.892;-123.962;2023-07-20T05:57:04;101920.45;;;16.11;82.23
51067;BME280;37112;45.892;-123.962;2023-07-20T05:59:17;101923.57;;;16.13;82.32
51067;BME280;37112;45.892;-123.962;2023-07-20T06:01:30;101927.71;;;16.12;82.24
51067;BME280;37112;45.892;-123.962;2023-07-20T06:03:44;101930.67;;;16.11;82.36
51067;BME280;37112;45.892;-123.962;2023-07-20T06:06:00;101928.47;;;16.12;82.41
51067;BME280;37112;45.892;-123.962;2023-07-20T06:08:15;101928.48;;;16.14;82.63
51067;BME280;37112;45.892;-123.962;2023-07-20T06:10:29;101927.14;;;16.18;82.73
51067;BME280;37112;45.892;-123.962;2023-07-20T06:12:43;101929.08;;;16.21;82.78
51067;BME280;37112;45.892;-123.962;2023-07-20T06:14:56;101922.70;;;16.24;82.83
51067;BME280;37112;45.892;-123.962;2023-07-20T06:17:11;101918.77;;;16.27;82.88
51067;BME280;37112;45.892;-123.962;2023-07-20T06:19:25;101917.58;;;16.31;82.99
51067;BME280;37112;45.892;-123.962;2023-07-20T06:21:39;101915.23;;;16.34;83.11
51067;BME280;37112;45.892;-123.962;2023-07-20T06:23:52;101915.87;;;16.37;83.16
51067;BME280;37112;45.892;-123.962;2023-07-20T06:26:08;101915.80;;;16.40;83.18
51067;BME280;37112;45.892;-123.962;2023-07-20T06:28:21;101916.73;;;16.43;82.98
51067;BME280;37112;45.892;-123.962;2023-07-20T06:30:36;101917.80;;;16.45;83.09
51067;BME280;37112;45.892;-123.962;2023-07-20T06:32:50;101918.73;;;16.47;83.03
51067;BME280;37112;45.892;-123.962;2023-07-20T06:35:03;101919.08;;;16.47;83.01
51067;BME280;37112;45.892;-123.962;2023-07-20T06:37:17;101920.23;;;16.49;83.02
51067;BME280;37112;45.892;-123.962;2023-07-20T06:39:31;101921.21;;;16.50;83.02
51067;BME280;37112;45.892;-123.962;2023-07-20T06:41:47;101915.94;;;16.51;83.03
51067;BME280;37112;45.892;-123.962;2023-07-20T06:44:04;101913.16;;;16.52;83.12
51067;BME280;37112;45.892;-123.962;2023-07-20T06:46:19;101913.75;;;16.54;83.06
51067;BME280;37112;45.892;-123.962;2023-07-20T06:48:33;101913.33;;;16.48;82.36
51067;BME280;37112;45.892;-123.962;2023-07-20T06:51:07;101915.86;;;16.42;82.18
51067;BME280;37112;45.892;-123.962;2023-07-20T06:53:23;101913.95;;;16.39;82.30
51067;BME280;37112;45.892;-123.962;2023-07-20T06:55:37;101915.29;;;16.38;82.51
51067;BME280;37112;45.892;-123.962;2023-07-20T06:57:51;101914.44;;;16.39;82.64
51067;BME280;37112;45.892;-123.962;2023-07-20T07:00:09;101915.17;;;16.42;82.80
51067;BME280;37112;45.892;-123.962;2023-07-20T07:02:26;101915.80;;;16.38;81.97
51067;BME280;37112;45.892;-123.962;2023-07-20T07:04:40;101916.41;;;16.32;81.65
51067;BME280;37112;45.892;-123.962;2023-07-20T07:06:54;101915.43;;;16.29;81.84
51067;BME280;37112;45.892;-123.962;2023-07-20T07:09:07;101921.02;;;16.28;81.87
51067;BME280;37112;45.892;-123.962;2023-07-20T07:11:22;101918.37;;;16.25;81.82
51067;BME280;37112;45.892;-123.962;2023-07-20T07:13:36;101919.16;;;16.24;81.93
51067;BME280;37112;45.892;-123.962;2023-07-20T07:15:49;101916.27;;;16.24;82.17
51067;BME280;37112;45.892;-123.962;2023-07-20T07:18:02;101924.00;;;16.27;82.37
51067;BME280;37112;45.892;-123.962;2023-07-20T07:20:16;101924.75;;;16.26;82.20
51067;BME280;37112;45.892;-123.962;2023-07-20T07:22:30;101924.35;;;16.27;82.43
51067;BME280;37112;45.892;-123.962;2023-07-20T07:24:43;101926.39;;;16.28;82.39
51067;BME280;37112;45.892;-123.962;2023-07-20T07:26:57;101925.98;;;16.24;82.03
51067;BME280;37112;45.892;-123.962;2023-07-20T07:29:11;101927.91;;;16.17;81.68
51067;BME280;37112;45.892;-123.962;2023-07-20T07:31:28;101927.55;;;16.12;81.55
51067;BME280;37112;45.892;-123.962;2023-07-20T07:33:42;101928.30;;;16.04;81.54
51067;BME280;37112;45.892;-123.962;2023-07-20T07:35:55;101931.02;;;15.99;81.55
51067;BME280;37112;45.892;-123.962;2023-07-20T07:38:11;101930.33;;;15.96;81.62
51067;BME280;37112;45.892;-123.962;2023-07-20T07:40:44;101934.52;;;15.98;82.01
51067;BME280;37112;45.892;-123.962;2023-07-20T07:42:57;101939.20;;;16.00;82.34
51067;BME280;37112;45.892;-123.962;2023-07-20T07:45:12;101937.20;;;15.92;81.28
51067;BME280;37112;45.892;-123.962;2023-07-20T07:47:26;101937.45;;;15.81;81.11
51067;BME280;37112;45.892;-123.962;2023-07-20T07:49:39;101933.26;;;15.80;81.59
51067;BME280;37112;45.892;-123.962;2023-07-20T07:51:56;101932.28;;;15.81;82.12
51067;BME280;37112;45.892;-123.962;2023-07-20T07:54:09;101933.73;;;15.83;82.44
51067;BME280;37112;45.892;-123.962;2023-07-20T07:56:23;101930.92;;;15.84;82.55
51067;BME280;37112;45.892;-123.962;2023-07-20T07:58:37;101927.83;;;15.85;82.46
51067;BME280;37112;45.892;-123.962;2023-07-20T08:00:51;101928.98;;;15.87;82.83
51067;BME280;37112;45.892;-123.962;2023-07-20T08:03:05;101928.67;;;15.92;83.02
51067;BME280;37112;45.892;-123.962;2023-07-20T08:05:19;101930.27;;;15.94;83.11
51067;BME280;37112;45.892;-123.962;2023-07-20T08:07:33;101930.83;;;15.97;83.44
51067;BME280;37112;45.892;-123.962;2023-07-20T08:09:46;101930.17;;;16.01;83.54
51067;BME280;37112;45.892;-123.962;2023-07-20T08:12:00;101932.50;;;16.03;83.62
51067;BME280;37112;45.892;-123.962;2023-07-20T08:14:14;101931.34;;;16.07;83.70
51067;BME280;37112;45.892;-123.962;2023-07-20T08:16:28;101933.14;;;16.09;83.56
51067;BME280;37112;45.892;-123.962;2023-07-20T08:18:41;101930.50;;;15.96;82.01
51067;BME280;37112;45.892;-123.962;2023-07-20T08:20:55;101931.45;;;15.80;81.68
51067;BME280;37112;45.892;-123.962;2023-07-20T08:23:08;101933.34;;;15.73;82.08
51067;BME280;37112;45.892;-123.962;2023-07-20T08:25:22;101934.74;;;15.71;82.56
51067;BME280;37112;45.892;-123.962;2023-07-20T08:27:36;101934.66;;;15.70;82.80
51067;BME280;37112;45.892;-123.962;2023-07-20T08:29:50;101939.31;;;15.65;82.85
51067;BME280;37112;45.892;-123.962;2023-07-20T08:32:06;101937.23;;;15.62;83.10
51067;BME280;37112;45.892;-123.962;2023-07-20T08:34:19;101936.17;;;15.61;83.44
51067;BME280;37112;45.892;-123.962;2023-07-20T08:36:40;101937.05;;;15.61;83.55
51067;BME280;37112;45.892;-123.962;2023-07-20T08:38:54;101938.27;;;15.62;83.77
51067;BME280;37112;45.892;-123.962;2023-07-20T08:41:08;101935.67;;;15.60;83.65
51067;BME280;37112;45.892;-123.962;2023-07-20T08:43:23;101937.36;;;15.59;83.81
51067;BME280;37112;45.892;-123.962;2023-07-20T08:45:39;101941.27;;;15.59;83.88
51067;BME280;37112;45.892;-123.962;2023-07-20T08:47:53;101943.46;;;15.59;84.02
51067;BME280;37112;45.892;-123.962;2023-07-20T08:50:10;101944.08;;;15.60;84.24
51067;BME280;37112;45.892;-123.962;2023-07-20T08:52:25;101945.58;;;15.57;83.97
51067;BME280;37112;45.892;-123.962;2023-07-20T08:54:39;101943.55;;;15.45;83.15
51067;BME280;37112;45.892;-123.962;2023-07-20T08:56:53;101945.46;;;15.40;83.37
51067;BME280;37112;45.892;-123.962;2023-07-20T08:59:11;101948.39;;;15.39;83.73
51067;BME280;37112;45.892;-123.962;2023-07-20T09:01:26;101948.98;;;15.41;84.22
51067;BME280;37112;45.892;-123.962;2023-07-20T09:03:40;101950.23;;;15.44;84.62
51067;BME280;37112;45.892;-123.962;2023-07-20T09:05:54;101947.80;;;15.48;85.02
51067;BME280;37112;45.892;-123.962;2023-07-20T09:08:07;101949.96;;;15.53;85.27
51067;BME280;37112;45.892;-123.962;2023-07-20T09:10:21;101951.20;;;15.58;85.43
51067;BME280;37112;45.892;-123.962;2023-07-20T09:12:37;101949.61;;;15.64;85.36
51067;BME280;37112;45.892;-123.962;2023-07-20T09:14:51;101950.77;;;15.68;85.36
51067;BME280;37112;45.892;-123.962;2023-07-20T09:17:04;101948.63;;;15.70;85.34
51067;BME280;37112;45.892;-123.962;2023-07-20T09:19:21;101948.67;;;15.72;85.39
51067;BME280;37112;45.892;-123.962;2023-07-20T09:21:34;101945.13;;;15.74;85.56
51067;BME280;37112;45.892;-123.962;2023-07-20T09:23:48;101944.20;;;15.75;85.55
51067;BME280;37112;45.892;-123.962;2023-07-20T09:26:11;101940.37;;;15.75;85.59
51067;BME280;37112;45.892;-123.962;2023-07-20T09:28:26;101941.94;;;15.76;85.71
51067;BME280;37112;45.892;-123.962;2023-07-20T09:30:45;101943.36;;;15.78;85.94
51067;BME280;37112;45.892;-123.962;2023-07-20T09:33:02;101945.22;;;15.80;85.92
51067;BME280;37112;45.892;-123.962;2023-07-20T09:35:37;101943.03;;;15.83;86.21
51067;BME280;37112;45.892;-123.962;2023-07-20T09:37:53;101942.83;;;15.86;86.25
51067;BME280;37112;45.892;-123.962;2023-07-20T09:40:12;101946.30;;;15.91;86.41
51067;BME280;37112;45.892;-123.962;2023-07-20T09:42:28;101938.55;;;15.94;86.45
51067;BME280;37112;45.892;-123.962;2023-07-20T09:44:45;101937.55;;;15.98;86.66
51067;BME280;37112;45.892;-123.962;2023-07-20T09:46:59;101936.94;;;16.01;86.65
51067;BME280;37112;45.892;-123.962;2023-07-20T09:49:13;101935.73;;;16.03;86.63
51067;BME280;37112;45.892;-123.962;2023-07-20T09:51:30;101939.81;;;16.04;86.57
51067;BME280;37112;45.892;-123.962;2023-07-20T09:53:44;101943.90;;;16.04;86.53
51067;BME280;37112;45.892;-123.962;2023-07-20T09:55:59;101943.84;;;16.02;86.49
51067;BME280;37112;45.892;-123.962;2023-07-20T09:58:14;101947.13;;;16.02;86.51
51067;BME280;37112;45.892;-123.962;2023-07-20T10:00:29;101946.86;;;15.98;86.40
51067;BME280;37112;45.892;-123.962;2023-07-20T10:02:46;101949.25;;;15.94;86.51
51067;BME280;37112;45.892;-123.962;2023-07-20T10:05:04;101954.02;;;15.93;86.61
51067;BME280;37112;45.892;-123.962;2023-07-20T10:07:19;101954.14;;;15.91;86.70
51067;BME280;37112;45.892;-123.962;2023-07-20T10:09:37;101954.39;;;15.90;86.74
51067;BME280;37112;45.892;-123.962;2023-07-20T10:11:52;101947.11;;;15.90;87.01
51067;BME280;37112;45.892;-123.962;2023-07-20T10:14:26;101943.87;;;15.92;87.18
51067;BME280;37112;45.892;-123.962;2023-07-20T10:16:46;101944.83;;;15.96;87.45
51067;BME280;37112;45.892;-123.962;2023-07-20T10:19:07;101944.16;;;16.00;87.42
51067;BME280;37112;45.892;-123.962;2023-07-20T10:21:27;101940.19;;;16.01;87.44
51067;BME280;37112;45.892;-123.962;2023-07-20T10:23:44;101944.47;;;16.04;87.58
51067;BME280;37112;45.892;-123.962;2023-07-20T10:25:58;101944.88;;;16.06;87.44
51067;BME280;37112;45.892;-123.962;2023-07-20T10:28:12;101939.85;;;15.90;85.35
51067;BME280;37112;45.892;-123.962;2023-07-20T10:30:27;101941.56;;;15.74;84.73
51067;BME280;37112;45.892;-123.962;2023-07-20T10:32:42;101941.09;;;15.62;84.84
51067;BME280;37112;45.892;-123.962;2023-07-20T10:34:58;101941.60;;;15.57;85.22
51067;BME280;37112;45.892;-123.962;2023-07-20T10:37:13;101944.67;;;15.57;85.67
51067;BME280;37112;45.892;-123.962;2023-07-20T10:39:46;101946.96;;;15.54;85.91
51067;BME280;37112;45.892;-123.962;2023-07-20T10:42:06;101945.90;;;15.54;86.18
51067;BME280;37112;45.892;-123.962;2023-07-20T10:44:22;101946.67;;;15.56;86.50
51067;BME280;37112;45.892;-123.962;2023-07-20T10:46:44;101947.41;;;15.59;86.84
51067;BME280;37112;45.892;-123.962;2023-07-20T10:49:06;101948.41;;;15.63;87.05
51067;BME280;37112;45.892;-123.962;2023-07-20T10:51:25;101951.48;;;15.68;87.31
51067;BME280;37112;45.892;-123.962;2023-07-20T10:53:40;101955.30;;;15.72;87.47
51067;BME280;37112;45.892;-123.962;2023-07-20T10:56:08;101948.91;;;15.74;87.45
51067;BME280;37112;45.892;-123.962;2023-07-20T10:58:22;101949.89;;;15.75;87.36
51067;BME280;37112;45.892;-123.962;2023-07-20T11:00:40;101950.60;;;15.75;87.23
51067;BME280;37112;45.892;-123.962;2023-07-20T11:03:10;101948.44;;;15.65;86.14
51067;BME280;37112;45.892;-123.962;2023-07-20T11:05:40;101952.27;;;15.56;85.84
51067;BME280;37112;45.892;-123.962;2023-07-20T11:07:53;101951.47;;;15.47;85.76
51067;BME280;37112;45.892;-123.962;2023-07-20T11:10:17;101953.85;;;15.38;85.63
51067;BME280;37112;45.892;-123.962;2023-07-20T11:12:32;101957.52;;;15.31;85.79
51067;BME280;37112;45.892;-123.962;2023-07-20T11:14:55;101959.27;;;15.29;86.10
51067;BME280;37112;45.892;-123.962;2023-07-20T11:17:15;101959.91;;;15.28;86.10
51067;BME280;37112;45.892;-123.962;2023-07-20T11:19:30;101960.29;;;15.14;84.95
51067;BME280;37112;45.892;-123.962;2023-07-20T11:21:50;101957.27;;;15.01;84.67
51067;BME280;37112;45.892;-123.962;2023-07-20T11:24:11;101959.06;;;14.93;85.06